• Join FlightAware (Why Join?)
  • Login
  • US Flag 
01:11PM EDT


 

Airport Tracker/Info


-or-


 

Live Flight TrackerFlight Track Log ✈ UAL3779 ✈ 09-Apr-2013 ✈ KOKC - KORD

Flight Track Log - Related Links

Times and Time Zones

All times are in EDT time to prevent confusion due to time zone crossing. See the UAL3779 flight status page for this flight to view local times or setup timezone preferences in your user account.

Time Position Orientation Groundspeed Altitude Reporting Facility
EDT Latitude Longitude Course Direction KTS MPH feet Rate Location/Type
07:09AM 35.3789 -97.5944 159° South 138 159 2,000  Level Fort Worth Center
07:10AM 35.3353 -97.5739 159° South 208 239 4,400 2,340 Climbing Fort Worth Center
07:13AM 35.3919 -97.4042 68° East 298 343 9,500 2,400 Climbing Kansas City Center
07:14AM 35.4458 -97.2972 58° Northeast 324 373 11,800 2,220 Climbing Kansas City Center
07:15AM 35.5022 -97.1858 58° Northeast 368 423 14,100 2,400 Climbing Kansas City Center
07:16AM 35.5614 -97.0719 57° Northeast 391 450 16,800 2,520 Climbing Kansas City Center
07:17AM 35.6194 -96.9542 59° Northeast 400 460 19,100 2,160 Climbing Kansas City Center
07:18AM 35.6942 -96.8053 58° Northeast 423 487 21,200 1,980 Climbing Kansas City Center
07:19AM 35.7581 -96.6775 58° Northeast 435 501 23,200 1,800 Climbing Kansas City Center
07:20AM 35.8222 -96.5483 58° Northeast 440 506 25,000 1,620 Climbing Kansas City Center
07:21AM 35.8875 -96.4164 59° Northeast 448 516 26,500 1,260 Climbing Kansas City Center
07:22AM 35.9467 -96.2969 59° Northeast 453 521 27,600 1,020 Climbing Kansas City Center
07:23AM 36.0144 -96.1594 59° Northeast 464 534 28,700 1,260 Climbing Kansas City Center
07:24AM 36.0831 -96.0206 59° Northeast 471 542 30,200 1,500 Climbing Kansas City Center
07:25AM 36.1500 -95.8822 59° Northeast 470 541 31,700 1,500 Climbing Kansas City Center
07:26AM 36.2233 -95.7328 59° Northeast 467 537 33,300 1,380 Climbing Kansas City Center
07:27AM 36.2894 -95.5961 59° Northeast 464 534 34,500 1,140 Climbing Kansas City Center
07:28AM 36.3567 -95.4572 59° Northeast 467 537 35,600 1,140 Climbing Kansas City Center
07:29AM 36.4225 -95.3178 60° Northeast 469 540 36,800 1,080 Climbing Kansas City Center
07:30AM 36.4894 -95.1789 59° Northeast 469 540 37,800 780 Climbing Kansas City Center
07:31AM 36.5581 -95.0347 59° Northeast 469 540 38,500 540 Climbing Kansas City Center
07:32AM 36.6244 -94.8936 60° Northeast 471 542 39,000 240 Climbing Kansas City Center
07:33AM 36.6928 -94.7494 59° Northeast 478 550 39,000  Level Kansas City Center
07:34AM 36.7636 -94.5994 59° Northeast 494 568 39,000  Level Kansas City Center
07:35AM 36.8375 -94.4517 58° Northeast 500 575 39,000  Level Kansas City Center
07:36AM 36.9389 -94.3386 42° Northeast 486 559 39,000  Level Kansas City Center
07:37AM 37.0464 -94.2347 38° Northeast 487 560 39,000  Level Kansas City Center
07:38AM 37.1528 -94.1289 38° Northeast 487 560 39,000  Level Kansas City Center
07:39AM 37.2822 -94.0064 37° Northeast 486 559 39,000  Level Kansas City Center
07:40AM 37.3886 -93.9003 38° Northeast 486 559 39,000  Level Kansas City Center
07:41AM 37.4961 -93.7939 38° Northeast 488 562 39,000  Level Kansas City Center
07:42AM 37.6028 -93.6858 39° Northeast 489 563 39,000  Level Kansas City Center
07:43AM 37.7086 -93.5800 38° Northeast 486 559 39,000  Level Kansas City Center
07:44AM 37.8125 -93.4742 39° Northeast 480 552 39,000  Level Kansas City Center
07:45AM 37.9164 -93.3692 39° Northeast 476 548 39,000  Level Kansas City Center
07:46AM 38.0194 -93.2650 39° Northeast 473 544 39,000  Level Kansas City Center
07:47AM 38.1239 -93.1581 39° Northeast 476 548 39,000  Level Kansas City Center
07:48AM 38.2328 -93.0506 38° Northeast 487 560 39,000  Level Kansas City Center
07:49AM 38.3378 -92.9414 39° Northeast 485 558 39,000  Level Kansas City Center
07:50AM 38.4436 -92.8311 39° Northeast 485 558 39,000  Level Kansas City Center
07:51AM 38.5489 -92.7222 39° Northeast 484 557 39,000  Level Kansas City Center
07:52AM 38.6525 -92.6142 39° Northeast 479 551 39,000  Level Kansas City Center
07:53AM 38.7575 -92.5047 39° Northeast 481 554 39,000  Level Kansas City Center
07:54AM 38.8622 -92.3956 39° Northeast 482 555 39,000  Level Kansas City Center
07:55AM 38.9661 -92.2842 40° Northeast 483 556 39,000  Level Kansas City Center
07:56AM 39.0722 -92.1761 38° Northeast 483 556 39,000  Level Kansas City Center
07:57AM 39.1628 -92.0456 48° Northeast 485 558 39,000  Level Kansas City Center
07:58AM 39.2514 -91.8867 54° Northeast 492 566 39,000  Level Kansas City Center
07:59AM 39.3244 -91.7628 53° Northeast 492 566 39,000  Level Kansas City Center
08:00AM 39.4142 -91.6039 54° Northeast 489 563 39,000  Level Kansas City Center
08:01AM 39.4936 -91.4642 54° Northeast 485 558 39,000  Level Kansas City Center
08:02AM 39.5717 -91.3256 54° Northeast 481 554 39,000  Level Kansas City Center
08:03AM 39.6508 -91.1867 53° Northeast 478 550 39,000  Level Kansas City Center
08:04AM 39.7497 -91.0750 41° Northeast 472 543 39,000 -240 Level Kansas City Center
08:05AM 39.8517 -90.9642 40° Northeast 461 531 38,600 -1,080 Descending Kansas City Center
08:06AM 39.9511 -90.8567 40° Northeast 463 533 36,800 -1,800 Descending Kansas City Center
08:07AM 40.0522 -90.7450 40° Northeast 472 543 35,000 -1,680 Descending Kansas City Center
08:08AM 40.1481 -90.6414 40° Northeast 480 552 33,400 -1,020 Descending Chicago Center
08:09AM 40.2578 -90.5256 39° Northeast 472 543 33,000 -240 Descending Chicago Center
08:10AM 40.3553 -90.4261 38° Northeast 448 516 33,000  Level Chicago Center
08:11AM 40.4461 -90.3350 37° Northeast 415 478 33,000  Level Chicago Center
08:12AM 40.5486 -90.2272 39° Northeast 412 474 33,000  Level Chicago Center
08:13AM 40.6392 -90.1350 38° Northeast 412 474 33,000 -300 Level Chicago Center
08:14AM 40.7303 -90.0431 37° Northeast 413 475 32,400 -540 Descending Chicago Center
08:16AM 40.8200 -89.9494 38° Northeast 411 473 32,000 -1,440 Descending Chicago Center
08:17AM 40.9256 -89.8361 39° Northeast 409 471 29,500 -2,220 Descending Chicago Center
08:18AM 41.0083 -89.7494 38° Northeast 403 464 27,500 -2,040 Descending Chicago Center
08:19AM 41.0944 -89.6589 38° Northeast 394 453 25,400 -1,860 Descending Chicago Center
08:20AM 41.1700 -89.5628 44° Northeast 383 441 23,700 -1,680 Descending Chicago Center
08:21AM 41.2194 -89.4439 61° Northeast 370 426 22,000 -1,680 Descending Chicago Center
08:22AM 41.2664 -89.3275 62° Northeast 360 414 20,300 -1,680 Descending Chicago Center
08:23AM 41.3131 -89.2114 62° Northeast 358 412 18,600 -1,920 Descending Chicago Center
08:24AM 41.3644 -89.0753 63° Northeast 344 396 16,400 -1,920 Descending Chicago Center
08:25AM 41.4106 -88.9642 61° Northeast 345 397 14,700 -1,260 Descending Chicago Center
08:26AM 41.4544 -88.8575 61° Northeast 336 387 13,900 -360 Descending Chicago Center
08:27AM 41.4939 -88.7536 63° Northeast 319 367 14,000 -300 Climbing Chicago Center
08:28AM 41.5225 -88.6456 70° East 318 366 13,300 -660 Descending Chicago Center
08:29AM 41.4692 -88.6097 153° Southeast 238 274 12,700 -660 Descending Chicago Center
08:30AM 41.4381 -88.6767 238° Southwest 217 250 12,000 -360 Descending Chicago Center
08:31AM 41.4064 -88.7572 242° Southwest 207 238 12,000  Level Chicago Center
08:32AM 41.3783 -88.8278 242° Southwest 216 249 12,000 -60 Level Chicago Center
08:33AM 41.4164 -88.8850 312° West 270 311 11,900 -300 Descending Chicago Center
08:34AM 41.4625 -88.8058 52° Northeast 295 339 11,400 -480 Descending Chicago Center
08:35AM 41.4761 -88.7078 79° East 272 313 11,000 -240 Descending Chicago Center
08:36AM 41.4875 -88.6072 81° East 275 316 11,000  Level Chicago Center
08:37AM 41.5064 -88.5111 75° East 274 315 11,000 -300 Level Chicago Center
08:38AM 41.5797 -88.4372 37° Northeast 272 313 10,400 -780 Descending Chicago Center
08:39AM 41.6419 -88.3744 37° Northeast 278 320 9,500 -1,020 Descending Chicago Center
08:40AM 41.7150 -88.3558 11° North 267 307 8,400 -1,200 Descending Chicago Center
08:41AM 41.7908 -88.3458 North 274 315 7,100 -900 Descending Chicago Center
08:42AM 41.8575 -88.3547 354° North 247 284 6,600 -600 Descending Chicago Center
08:43AM 41.8847 -88.4161 301° West 199 229 5,900 -780 Descending Chicago Center
08:44AM 41.9139 -88.4639 309° West 212 244 5,000 -480 Descending Chicago Center
08:45AM 41.9583 -88.4311 29° Northeast 210 242 5,000  Level Chicago Center
08:46AM 41.9669 -88.3478 82° East 194 223 5,000  Level Chicago Center
08:47AM 41.9656 -88.2753 91° East 198 228 5,000 -120 Level Chicago Center
08:48AM 41.9678 -88.2028 88° East 194 223 4,800 -720 Descending Chicago Center
08:49AM 41.9675 -88.1306 90° East 195 224 3,600 -1,080 Descending Chicago Center
08:50AM 41.9686 -88.0594 89° East 193 222 2,600 -960 Descending Chicago Center
08:51AM 41.9667 -88.0000 92° East 123 142 1,800 -780 Descending Chicago TRACON
08:52AM 41.9667 -87.9500 90° East 124 143 1,100 -720 Descending Chicago TRACON
08:54AM 41.9667 -87.9000 37° Northeast  Level FlightAware Approximate